Eben Junction, Michigan
Current Conditions -  °F | °C
As of 10:55 AM on Friday 31 Oct 2014 (Local Time) from KSAW Reporting Station
Blowing Snow Blowing Snow  
Wind Chill: 16°   Ceiling: 4100
Heat Index: 30°   Visibility: 5mi
Dew Point: 23°   Wind: 25mph
Humidity: 75%   Direction: 10°N
Pressure: 30.3"   Gusts: 32mph
Location:  46.35°N, 86.97°W
Report Text: KSAW 311455Z 01022G28KT 5SM BLSN SCT030 BKN041 OVC048 M01/M05 A3030
Loading
Personal Weather Stations






























Interactive Weather Map
Tropical Storm Tracking
New forecast layout! Learn more

10-Day Weather Forecast

Advertisements
Track Severe Weather on mobile